createdAt,value
2019-03-09T00:00:46.768Z,65
2019-03-09T00:01:46.711Z,66
2019-03-09T00:02:46.707Z,67
2019-03-09T00:03:46.780Z,68
2019-03-09T00:04:46.810Z,68
2019-03-09T00:05:46.791Z,67
2019-03-09T00:06:46.838Z,66
2019-03-09T00:07:46.821Z,67
2019-03-09T00:08:46.952Z,66
2019-03-09T00:09:46.923Z,66
2019-03-09T00:10:46.962Z,66
2019-03-09T00:11:46.956Z,66
2019-03-09T00:12:47.006Z,66
2019-03-09T00:13:47.046Z,66
2019-03-09T00:14:47.036Z,66
2019-03-09T00:15:47.066Z,66
2019-03-09T00:16:49.610Z,66
2019-03-09T00:17:47.165Z,65
2019-03-09T00:18:47.158Z,65
2019-03-09T00:19:47.182Z,65
2019-03-09T00:20:47.210Z,64
2019-03-09T00:21:47.240Z,64
2019-03-09T00:22:47.291Z,64
2019-03-09T00:23:47.268Z,64
2019-03-09T00:24:47.319Z,65
2019-03-09T00:25:47.325Z,64
2019-03-09T00:26:47.365Z,65
2019-03-09T00:27:47.404Z,65
2019-03-09T00:28:47.417Z,65
2019-03-09T00:29:47.463Z,65
2019-03-09T00:30:47.488Z,64
2019-03-09T00:31:47.513Z,64
2019-03-09T00:32:47.543Z,63
2019-03-09T00:33:47.569Z,63
2019-03-09T00:34:47.623Z,63
2019-03-09T00:35:47.576Z,63
2019-03-09T00:36:47.651Z,63
2019-03-09T00:37:47.631Z,63
2019-03-09T00:38:47.645Z,63
2019-03-09T00:39:47.656Z,64
2019-03-09T00:40:47.692Z,63
2019-03-09T00:41:47.845Z,63
2019-03-09T00:42:47.714Z,63
2019-03-09T00:43:47.706Z,62
2019-03-09T00:44:47.783Z,62
2019-03-09T00:45:47.768Z,62
2019-03-09T00:46:47.789Z,61
2019-03-09T00:47:47.852Z,62
2019-03-09T00:48:47.846Z,62
2019-03-09T00:49:47.818Z,62
2019-03-09T00:50:47.840Z,62
2019-03-09T00:51:47.886Z,62
2019-03-09T00:52:47.897Z,61
2019-03-09T00:53:47.895Z,62
2019-03-09T00:54:47.918Z,62
2019-03-09T00:55:47.915Z,62
2019-03-09T00:56:47.945Z,62
2019-03-09T00:57:47.983Z,62
2019-03-09T00:58:47.962Z,62
2019-03-09T00:59:47.983Z,62
2019-03-09T01:00:47.990Z,62
2019-03-09T01:01:47.977Z,62
2019-03-09T01:02:48.009Z,62
2019-03-09T01:03:48.006Z,61
2019-03-09T01:04:48.031Z,61
2019-03-09T01:05:48.082Z,61
2019-03-09T01:06:48.059Z,61
2019-03-09T01:07:48.058Z,62
2019-03-09T01:08:48.063Z,62
2019-03-09T01:09:48.074Z,61
2019-03-09T01:10:48.125Z,61
2019-03-09T01:11:48.073Z,61
2019-03-09T01:12:48.079Z,61
2019-03-09T01:13:48.089Z,61
2019-03-09T01:14:48.140Z,60
2019-03-09T01:15:48.152Z,61
2019-03-09T01:16:48.086Z,60
2019-03-09T01:17:48.105Z,60
2019-03-09T01:18:48.208Z,60
2019-03-09T01:19:48.118Z,60
2019-03-09T01:20:48.147Z,60
2019-03-09T01:21:48.113Z,60
2019-03-09T01:22:48.119Z,60
2019-03-09T01:23:48.148Z,60
2019-03-09T01:24:48.124Z,61
2019-03-09T01:25:48.113Z,61
2019-03-09T01:26:48.147Z,61
2019-03-09T01:27:48.178Z,60
2019-03-09T01:28:48.162Z,61
2019-03-09T01:29:48.182Z,61
2019-03-09T01:30:48.186Z,60
2019-03-09T01:31:48.193Z,60
2019-03-09T01:32:48.183Z,60
2019-03-09T01:33:48.230Z,60
2019-03-09T01:34:48.219Z,60
2019-03-09T01:35:48.204Z,60
2019-03-09T01:36:48.210Z,61
2019-03-09T01:37:48.231Z,60
2019-03-09T01:38:48.237Z,61
2019-03-09T01:39:48.259Z,60
2019-03-09T01:40:48.222Z,60
2019-03-09T01:41:48.216Z,61
2019-03-09T01:42:48.223Z,61
2019-03-09T01:43:48.272Z,61
2019-03-09T01:44:48.255Z,61
2019-03-09T01:45:48.249Z,61
2019-03-09T01:46:48.263Z,61
2019-03-09T01:47:48.257Z,60
2019-03-09T01:48:48.253Z,60
2019-03-09T01:49:50.450Z,61
2019-03-09T01:50:48.276Z,61
2019-03-09T01:51:48.253Z,62
2019-03-09T01:52:48.282Z,63
2019-03-09T01:53:48.273Z,62
2019-03-09T01:54:48.283Z,62
2019-03-09T01:55:48.288Z,62
2019-03-09T01:56:48.277Z,63
2019-03-09T01:57:48.347Z,63
2019-03-09T01:58:48.383Z,63
2019-03-09T01:59:48.340Z,62
2019-03-09T02:00:48.373Z,62
2019-03-09T02:01:48.379Z,62
2019-03-09T02:02:48.383Z,62
2019-03-09T02:03:48.407Z,61
2019-03-09T02:04:48.402Z,61
2019-03-09T02:05:48.471Z,61
2019-03-09T02:06:48.439Z,60
2019-03-09T02:07:48.473Z,60
2019-03-09T02:08:48.504Z,61
2019-03-09T02:09:48.616Z,60
2019-03-09T02:10:48.578Z,60
2019-03-09T02:11:48.513Z,60
2019-03-09T02:12:48.538Z,59
2019-03-09T02:13:48.539Z,60
2019-03-09T02:14:48.577Z,60
2019-03-09T02:15:48.585Z,59
2019-03-09T02:16:48.558Z,59
2019-03-09T02:17:48.560Z,59
2019-03-09T02:18:48.597Z,60
2019-03-09T02:19:48.587Z,59
2019-03-09T02:20:48.573Z,59
2019-03-09T02:21:48.700Z,59
2019-03-09T02:22:48.624Z,59
2019-03-09T02:23:48.675Z,59
2019-03-09T02:24:48.642Z,60
2019-03-09T02:25:48.661Z,60
2019-03-09T02:26:48.606Z,60
2019-03-09T02:27:48.608Z,59
2019-03-09T02:28:48.603Z,59
2019-03-09T02:29:48.603Z,59
2019-03-09T02:30:48.637Z,58
2019-03-09T02:31:48.685Z,58
2019-03-09T02:32:48.671Z,59
2019-03-09T02:33:48.643Z,59
2019-03-09T02:34:48.757Z,59
2019-03-09T02:35:48.715Z,59
2019-03-09T02:36:48.738Z,59
2019-03-09T02:37:48.782Z,58
2019-03-09T02:38:48.804Z,59
2019-03-09T02:39:48.913Z,58
2019-03-09T02:40:48.916Z,58
2019-03-09T02:41:48.912Z,58
2019-03-09T02:42:48.962Z,59
2019-03-09T02:43:48.985Z,59
2019-03-09T02:44:49.080Z,58
2019-03-09T02:45:49.086Z,58
2019-03-09T02:46:49.096Z,58
2019-03-09T02:47:49.138Z,58
2019-03-09T02:48:49.170Z,58
2019-03-09T02:49:49.204Z,58
2019-03-09T02:50:49.214Z,60
2019-03-09T02:51:49.239Z,59
2019-03-09T02:52:49.307Z,59
2019-03-09T02:53:49.314Z,58
2019-03-09T02:54:49.375Z,58
2019-03-09T02:55:49.367Z,58
2019-03-09T02:56:49.462Z,58
2019-03-09T02:57:49.439Z,59
2019-03-09T02:58:50.008Z,59
2019-03-09T02:59:49.500Z,59
2019-03-09T03:00:49.525Z,59
2019-03-09T03:01:49.531Z,59
2019-03-09T03:02:49.543Z,59
2019-03-09T03:03:49.634Z,58
2019-03-09T03:04:49.643Z,58
2019-03-09T03:05:49.638Z,59
2019-03-09T03:06:49.696Z,59
2019-03-09T03:07:49.728Z,59
2019-03-09T03:08:49.731Z,58
2019-03-09T03:09:49.729Z,58
2019-03-09T03:10:49.784Z,58
2019-03-09T03:11:49.911Z,59
2019-03-09T03:12:49.874Z,59
2019-03-09T03:13:49.891Z,59
2019-03-09T03:14:49.880Z,59
2019-03-09T03:15:49.867Z,60
2019-03-09T03:16:49.957Z,60
2019-03-09T03:17:49.933Z,60
2019-03-09T03:18:49.962Z,59
2019-03-09T03:19:49.980Z,59
2019-03-09T03:20:49.971Z,60
2019-03-09T03:21:50.023Z,60
2019-03-09T03:22:50.063Z,60
2019-03-09T03:23:50.047Z,60
2019-03-09T03:24:50.091Z,59
2019-03-09T03:25:50.080Z,60
2019-03-09T03:26:50.141Z,60
2019-03-09T03:27:50.126Z,60
2019-03-09T03:28:50.126Z,59
2019-03-09T03:29:50.156Z,59
2019-03-09T03:30:50.178Z,60
2019-03-09T03:31:50.205Z,60
2019-03-09T03:32:50.225Z,60
2019-03-09T03:33:50.188Z,60
2019-03-09T03:34:50.224Z,59
2019-03-09T03:35:50.231Z,60
2019-03-09T03:36:50.284Z,59
2019-03-09T03:37:50.267Z,59
2019-03-09T03:38:50.272Z,59
2019-03-09T03:39:50.293Z,59
2019-03-09T03:40:50.290Z,59
2019-03-09T03:41:50.303Z,59
2019-03-09T03:42:50.308Z,59
2019-03-09T03:43:50.328Z,59
2019-03-09T03:44:50.312Z,59
2019-03-09T03:45:50.338Z,59
2019-03-09T03:46:50.357Z,59
2019-03-09T03:47:50.417Z,59
2019-03-09T03:48:50.348Z,59
2019-03-09T03:49:50.371Z,58
2019-03-09T03:50:50.388Z,58
2019-03-09T03:51:50.354Z,59
2019-03-09T03:52:50.345Z,59
2019-03-09T03:53:50.368Z,59
2019-03-09T03:54:50.419Z,58
2019-03-09T03:55:50.409Z,58
2019-03-09T03:56:50.365Z,58
2019-03-09T03:57:50.394Z,58
2019-03-09T03:58:50.389Z,58
2019-03-09T03:59:50.397Z,58
2019-03-09T04:00:50.429Z,58
2019-03-09T04:01:50.443Z,58
2019-03-09T04:02:50.475Z,58
2019-03-09T04:03:50.581Z,57
2019-03-09T04:04:50.562Z,57
2019-03-09T04:05:50.617Z,58
2019-03-09T04:06:50.619Z,58
2019-03-09T04:07:50.656Z,57
2019-03-09T04:08:50.699Z,58
2019-03-09T04:09:50.691Z,58
2019-03-09T04:10:50.728Z,58
2019-03-09T04:11:50.756Z,58
2019-03-09T04:12:50.785Z,58
2019-03-09T04:13:50.806Z,57
2019-03-09T04:14:50.861Z,56
2019-03-09T04:15:50.895Z,56
2019-03-09T04:16:50.990Z,56
2019-03-09T04:17:51.032Z,56
2019-03-09T04:18:50.922Z,56
2019-03-09T04:19:51.000Z,57
2019-03-09T04:20:50.994Z,56
2019-03-09T04:21:51.014Z,56
2019-03-09T04:22:51.067Z,56
2019-03-09T04:23:51.049Z,56
2019-03-09T04:24:51.069Z,56
2019-03-09T04:25:51.081Z,56
2019-03-09T04:26:51.102Z,56
2019-03-09T04:27:51.151Z,56
2019-03-09T04:28:51.170Z,55
2019-03-09T04:29:51.189Z,55
2019-03-09T04:30:51.237Z,55
2019-03-09T04:31:51.274Z,55
2019-03-09T04:32:51.364Z,55
2019-03-09T04:33:51.281Z,55
2019-03-09T04:34:51.294Z,56
2019-03-09T04:35:51.303Z,56
2019-03-09T04:36:51.293Z,56
2019-03-09T04:37:51.313Z,57
2019-03-09T04:38:51.384Z,56
2019-03-09T04:39:51.389Z,56
2019-03-09T04:40:51.459Z,56
2019-03-09T04:41:51.409Z,56
2019-03-09T04:42:51.429Z,56
2019-03-09T04:43:51.582Z,56
2019-03-09T04:44:51.471Z,56
2019-03-09T04:45:51.459Z,55
2019-03-09T04:46:51.505Z,55
2019-03-09T04:47:51.508Z,55
2019-03-09T04:48:51.541Z,54
2019-03-09T04:49:51.545Z,55
2019-03-09T04:50:51.574Z,55
2019-03-09T04:51:51.573Z,56
2019-03-09T04:52:51.596Z,55
2019-03-09T04:53:51.635Z,54
2019-03-09T04:54:51.678Z,55
2019-03-09T04:55:51.660Z,54
2019-03-09T04:56:51.683Z,54
2019-03-09T04:57:51.702Z,55
2019-03-09T04:58:51.789Z,56
2019-03-09T04:59:51.725Z,55
2019-03-09T05:00:51.765Z,55
2019-03-09T05:01:51.750Z,55
2019-03-09T05:02:51.785Z,55
2019-03-09T05:03:51.780Z,54
2019-03-09T05:04:51.786Z,54
2019-03-09T05:05:51.832Z,54
2019-03-09T05:06:51.840Z,54
2019-03-09T05:07:51.813Z,55
2019-03-09T05:08:51.852Z,55
2019-03-09T05:09:51.845Z,55
2019-03-09T05:10:51.885Z,54
2019-03-09T05:11:51.882Z,55
2019-03-09T05:12:52.874Z,54
2019-03-09T05:13:51.879Z,54
2019-03-09T05:14:51.916Z,54
2019-03-09T05:15:51.900Z,54
2019-03-09T05:16:51.942Z,54
2019-03-09T05:17:51.911Z,54
2019-03-09T05:18:51.952Z,54
2019-03-09T05:19:51.933Z,54
2019-03-09T05:20:51.944Z,53
2019-03-09T05:21:51.927Z,54
2019-03-09T05:22:51.922Z,53
2019-03-09T05:23:51.926Z,54
2019-03-09T05:24:51.964Z,54
2019-03-09T05:25:51.960Z,54
2019-03-09T05:26:51.963Z,54
2019-03-09T05:27:51.956Z,54
2019-03-09T05:28:51.974Z,54
2019-03-09T05:29:51.976Z,53
2019-03-09T05:30:51.973Z,53
2019-03-09T05:31:51.984Z,54
2019-03-09T05:32:51.998Z,54
2019-03-09T05:33:51.971Z,55
2019-03-09T05:34:52.007Z,54
2019-03-09T05:35:52.007Z,54
2019-03-09T05:36:52.050Z,55
2019-03-09T05:37:52.036Z,54
2019-03-09T05:38:52.533Z,55
2019-03-09T05:39:52.005Z,55
2019-03-09T05:40:52.034Z,55
2019-03-09T05:41:52.027Z,54
2019-03-09T05:42:52.058Z,55
2019-03-09T05:43:52.031Z,54
2019-03-09T05:44:52.058Z,54
2019-03-09T05:45:52.068Z,55
2019-03-09T05:46:52.050Z,54
2019-03-09T05:47:52.053Z,54
2019-03-09T05:48:52.073Z,54
2019-03-09T05:49:52.067Z,55
2019-03-09T05:50:52.087Z,54
2019-03-09T05:51:52.094Z,54
2019-03-09T05:52:52.131Z,54
2019-03-09T05:53:52.150Z,54
2019-03-09T05:54:52.218Z,55
2019-03-09T05:55:52.234Z,54
2019-03-09T05:56:52.245Z,54
2019-03-09T05:57:52.309Z,54
2019-03-09T05:58:52.330Z,54
2019-03-09T05:59:52.328Z,55
2019-03-09T06:00:52.328Z,55
2019-03-09T06:01:52.389Z,56
2019-03-09T06:02:52.366Z,57
2019-03-09T06:03:52.443Z,57
2019-03-09T06:04:52.416Z,57
2019-03-09T06:05:52.401Z,58
2019-03-09T06:06:52.471Z,59
2019-03-09T06:07:52.443Z,60
2019-03-09T06:08:52.482Z,60
2019-03-09T06:09:52.538Z,60
2019-03-09T06:10:52.492Z,59
2019-03-09T06:11:52.537Z,59
2019-03-09T06:12:52.541Z,59
2019-03-09T06:13:52.555Z,60
2019-03-09T06:14:52.586Z,60
2019-03-09T06:15:52.619Z,61
2019-03-09T06:16:52.604Z,61
2019-03-09T06:17:52.597Z,60
2019-03-09T06:18:52.619Z,60
2019-03-09T06:19:52.665Z,60
2019-03-09T06:20:52.654Z,61
2019-03-09T06:21:52.692Z,61
2019-03-09T06:22:52.683Z,61
2019-03-09T06:23:52.679Z,61
2019-03-09T06:24:52.727Z,61
2019-03-09T06:25:52.711Z,63
2019-03-09T06:26:52.757Z,63
2019-03-09T06:27:52.739Z,62
2019-03-09T06:28:52.755Z,62
2019-03-09T06:29:52.790Z,62
2019-03-09T06:30:52.775Z,61
2019-03-09T06:31:52.754Z,62
2019-03-09T06:32:52.796Z,62
2019-03-09T06:33:52.856Z,64
2019-03-09T06:34:52.827Z,64
2019-03-09T06:35:52.850Z,64
2019-03-09T06:36:52.828Z,64
2019-03-09T06:37:52.828Z,64
2019-03-09T06:38:52.842Z,64
2019-03-09T06:39:52.845Z,63
2019-03-09T06:41:02.387Z,64
2019-03-09T06:41:52.847Z,64
2019-03-09T06:42:52.814Z,64
2019-03-09T06:43:52.928Z,64
2019-03-09T06:44:52.895Z,65
2019-03-09T06:45:52.844Z,64
2019-03-09T06:46:52.868Z,65
2019-03-09T06:47:52.863Z,64
2019-03-09T06:48:52.903Z,65
2019-03-09T06:49:52.957Z,65
2019-03-09T06:50:52.960Z,66
2019-03-09T06:51:52.977Z,67
2019-03-09T06:52:53.015Z,67
2019-03-09T06:53:53.067Z,66
2019-03-09T06:54:53.108Z,67
2019-03-09T06:55:53.116Z,68
2019-03-09T06:56:53.172Z,68
2019-03-09T06:57:53.186Z,68
2019-03-09T06:58:53.247Z,69
2019-03-09T06:59:53.337Z,69
2019-03-09T07:00:53.284Z,69
2019-03-09T07:01:53.309Z,69
2019-03-09T07:02:53.366Z,70
2019-03-09T07:03:53.457Z,71
2019-03-09T07:04:53.434Z,71
2019-03-09T07:05:53.436Z,71
2019-03-09T07:06:53.496Z,71
2019-03-09T07:07:53.488Z,72
2019-03-09T07:08:53.604Z,72
2019-03-09T07:09:54.575Z,72
2019-03-09T07:10:53.572Z,72
2019-03-09T07:11:53.603Z,72
2019-03-09T07:12:53.617Z,73
2019-03-09T07:13:53.623Z,73
2019-03-09T07:14:53.702Z,73
2019-03-09T07:15:53.673Z,73
2019-03-09T07:16:53.729Z,73
2019-03-09T07:17:53.777Z,73
2019-03-09T07:18:53.785Z,73
2019-03-09T07:19:53.902Z,74
2019-03-09T07:20:53.851Z,74
2019-03-09T07:21:53.854Z,75
2019-03-09T07:22:53.956Z,75
2019-03-09T07:23:53.910Z,75
2019-03-09T07:24:53.859Z,75
2019-03-09T07:25:53.877Z,75
2019-03-09T07:26:53.877Z,74
2019-03-09T07:27:53.883Z,74
2019-03-09T07:28:53.892Z,74
2019-03-09T07:29:53.969Z,74
2019-03-09T07:30:53.867Z,75
2019-03-09T07:31:53.908Z,76
2019-03-09T07:32:53.926Z,75
2019-03-09T07:33:53.898Z,75
2019-03-09T07:34:53.913Z,75
2019-03-09T07:35:54.916Z,76
2019-03-09T07:36:53.936Z,76
2019-03-09T07:37:53.922Z,77
2019-03-09T07:38:53.959Z,77
2019-03-09T07:39:53.957Z,76
2019-03-09T07:40:54.015Z,77
2019-03-09T07:41:53.968Z,77
2019-03-09T07:42:53.958Z,77
2019-03-09T07:43:54.012Z,78
2019-03-09T07:44:54.023Z,78
2019-03-09T07:45:54.046Z,77
2019-03-09T07:46:53.994Z,77
2019-03-09T07:47:53.986Z,77
2019-03-09T07:48:54.029Z,77
2019-03-09T07:49:54.039Z,76
2019-03-09T07:50:54.061Z,77
2019-03-09T07:51:54.080Z,77
2019-03-09T07:52:54.050Z,78
2019-03-09T07:53:54.051Z,78
2019-03-09T07:54:54.062Z,78
2019-03-09T07:55:54.141Z,78
2019-03-09T07:56:54.096Z,77
2019-03-09T07:57:54.095Z,78
2019-03-09T07:58:54.125Z,78
2019-03-09T07:59:54.570Z,78
2019-03-09T08:00:54.510Z,79
2019-03-09T08:01:54.531Z,79
2019-03-09T08:02:54.590Z,79
2019-03-09T08:03:54.418Z,79
2019-03-09T08:04:54.571Z,78
2019-03-09T08:05:54.367Z,78
2019-03-09T08:06:54.547Z,77
2019-03-09T08:07:54.545Z,77
2019-03-09T08:08:54.515Z,77
2019-03-09T08:09:54.469Z,77
2019-03-09T08:10:54.424Z,77
2019-03-09T08:11:54.389Z,77
2019-03-09T08:12:57.029Z,77
2019-03-09T08:13:54.545Z,77
2019-03-09T08:14:55.192Z,76
2019-03-09T08:15:54.644Z,75
2019-03-09T08:16:54.641Z,75
2019-03-09T08:17:55.806Z,75
2019-03-09T08:18:54.573Z,74
2019-03-09T08:19:54.342Z,74
2019-03-09T08:20:54.453Z,74
2019-03-09T08:21:54.618Z,73
2019-03-09T08:22:54.563Z,73
2019-03-09T08:23:56.445Z,71
2019-03-09T08:24:54.623Z,73
2019-03-09T08:25:54.566Z,73
2019-03-09T08:26:54.570Z,73
2019-03-09T08:27:54.544Z,71
2019-03-09T08:28:54.495Z,70
2019-03-09T08:29:54.566Z,69
2019-03-09T08:30:54.627Z,70
2019-03-09T08:31:54.733Z,69
2019-03-09T08:32:54.595Z,69
2019-03-09T08:33:54.602Z,70
2019-03-09T08:34:54.662Z,70
2019-03-09T08:35:54.583Z,69
2019-03-09T08:36:54.656Z,69
2019-03-09T08:37:54.655Z,71
2019-03-09T08:38:54.644Z,70
2019-03-09T08:39:54.598Z,68
2019-03-09T08:40:54.744Z,68
2019-03-09T08:41:54.642Z,66
2019-03-09T08:42:54.769Z,67
2019-03-09T08:43:54.643Z,67
2019-03-09T08:44:54.685Z,65
2019-03-09T08:45:54.694Z,66
2019-03-09T08:46:54.756Z,65
2019-03-09T08:47:54.673Z,66
2019-03-09T08:48:54.789Z,65
2019-03-09T08:49:54.733Z,64
2019-03-09T08:50:54.697Z,63
2019-03-09T08:51:54.647Z,62
2019-03-09T08:52:54.619Z,62
2019-03-09T08:53:54.687Z,62
2019-03-09T08:54:54.797Z,62
2019-03-09T08:55:54.808Z,61
2019-03-09T08:56:54.761Z,61
2019-03-09T08:57:54.833Z,60
2019-03-09T08:58:54.760Z,60
2019-03-09T08:59:54.660Z,62
2019-03-09T09:00:54.720Z,61
2019-03-09T09:01:54.819Z,61
2019-03-09T09:02:54.889Z,59
2019-03-09T09:03:54.691Z,58
2019-03-09T09:04:54.679Z,57
2019-03-09T09:05:54.778Z,58
2019-03-09T09:06:54.725Z,57
2019-03-09T09:07:54.716Z,58
2019-03-09T09:08:54.462Z,59
2019-03-09T09:09:54.463Z,58
2019-03-09T09:10:54.475Z,57
2019-03-09T09:11:54.514Z,57
2019-03-09T09:12:54.478Z,59
2019-03-09T09:13:54.492Z,56
2019-03-09T09:14:54.515Z,56
2019-03-09T09:15:54.520Z,56
2019-03-09T09:16:54.502Z,56
2019-03-09T09:17:54.513Z,56
2019-03-09T09:18:54.518Z,55
2019-03-09T09:19:54.500Z,57
2019-03-09T09:20:54.513Z,56
2019-03-09T09:21:54.535Z,55
2019-03-09T09:22:54.595Z,54
2019-03-09T09:23:54.569Z,54
2019-03-09T09:24:54.553Z,54
2019-03-09T09:25:54.553Z,53
2019-03-09T09:26:54.568Z,54
2019-03-09T09:27:54.553Z,54
2019-03-09T09:28:54.523Z,56
2019-03-09T09:29:54.569Z,55
2019-03-09T09:30:54.544Z,53
2019-03-09T09:31:54.614Z,54
2019-03-09T09:32:54.586Z,55
2019-03-09T09:33:54.680Z,53
2019-03-09T09:34:54.580Z,53
2019-03-09T09:35:54.575Z,53
2019-03-09T09:36:54.549Z,56
2019-03-09T09:37:54.907Z,56
2019-03-09T09:38:54.598Z,55
2019-03-09T09:39:54.599Z,54
2019-03-09T09:40:54.624Z,53
2019-03-09T09:41:54.617Z,54
2019-03-09T09:42:54.705Z,53
2019-03-09T09:43:54.607Z,53
2019-03-09T09:44:54.623Z,53
2019-03-09T09:45:54.624Z,53
2019-03-09T09:46:54.667Z,53
2019-03-09T09:47:54.633Z,53
2019-03-09T09:48:54.646Z,53
2019-03-09T09:49:54.661Z,53
2019-03-09T09:50:54.694Z,54
2019-03-09T09:51:54.654Z,55
2019-03-09T09:52:54.682Z,54
2019-03-09T09:53:54.681Z,53
2019-03-09T09:54:54.711Z,54
2019-03-09T09:55:54.694Z,55
2019-03-09T09:56:54.730Z,55
2019-03-09T09:57:54.724Z,55
2019-03-09T09:58:54.725Z,56
2019-03-09T09:59:54.828Z,54
2019-03-09T10:00:54.717Z,54
2019-03-09T10:01:54.720Z,53
2019-03-09T10:02:54.743Z,54
2019-03-09T10:03:54.746Z,53
2019-03-09T10:04:54.779Z,54
2019-03-09T10:05:54.753Z,54
2019-03-09T10:06:54.803Z,52
2019-03-09T10:07:54.761Z,52
2019-03-09T10:08:54.832Z,54
2019-03-09T10:09:54.782Z,54
2019-03-09T10:10:54.802Z,52
2019-03-09T10:11:54.860Z,51
2019-03-09T10:12:55.851Z,52
2019-03-09T10:13:54.848Z,52
2019-03-09T10:14:54.881Z,52
2019-03-09T10:15:55.041Z,52
2019-03-09T10:16:54.824Z,51
2019-03-09T10:17:54.896Z,51
2019-03-09T10:18:54.872Z,52
2019-03-09T10:19:54.899Z,51
2019-03-09T10:20:54.896Z,51
2019-03-09T10:21:57.364Z,51
2019-03-09T10:23:03.323Z,51
2019-03-09T10:23:54.909Z,52
2019-03-09T10:24:54.945Z,51
2019-03-09T10:25:54.929Z,51
2019-03-09T10:26:54.905Z,52
2019-03-09T10:27:54.919Z,52
2019-03-09T10:28:54.933Z,52
2019-03-09T10:29:54.929Z,52
2019-03-09T10:30:54.913Z,51
2019-03-09T10:31:54.966Z,53
2019-03-09T10:32:54.977Z,52
2019-03-09T10:33:54.981Z,52
2019-03-09T10:34:54.967Z,52
2019-03-09T10:35:54.983Z,52
2019-03-09T10:36:54.987Z,51
2019-03-09T10:37:54.970Z,51
2019-03-09T10:38:55.013Z,50
2019-03-09T10:39:55.009Z,50
2019-03-09T10:40:55.015Z,51
2019-03-09T10:41:55.117Z,51
2019-03-09T10:42:55.029Z,51
2019-03-09T10:43:55.013Z,51
2019-03-09T10:44:55.008Z,51
2019-03-09T10:45:55.031Z,51
2019-03-09T10:46:55.043Z,51
2019-03-09T10:47:55.078Z,49
2019-03-09T10:48:55.036Z,52
2019-03-09T10:49:55.050Z,50
2019-03-09T10:50:55.040Z,51
2019-03-09T10:51:55.082Z,51
2019-03-09T10:52:55.096Z,51
2019-03-09T10:53:55.066Z,51
2019-03-09T10:54:55.124Z,50
2019-03-09T10:55:55.115Z,50
2019-03-09T10:56:55.611Z,50
2019-03-09T10:57:55.108Z,50
2019-03-09T10:58:55.136Z,51
2019-03-09T10:59:55.149Z,51
2019-03-09T11:00:55.142Z,50
2019-03-09T11:01:55.111Z,50
2019-03-09T11:02:55.150Z,51
2019-03-09T11:03:55.134Z,51
2019-03-09T11:04:55.154Z,50
2019-03-09T11:05:55.141Z,49
2019-03-09T11:06:55.178Z,50
2019-03-09T11:07:55.152Z,49
2019-03-09T11:08:55.178Z,49
2019-03-09T11:09:55.252Z,49
2019-03-09T11:10:55.172Z,49
2019-03-09T11:11:55.170Z,49
2019-03-09T11:12:55.190Z,48
2019-03-09T11:13:55.179Z,48
2019-03-09T11:14:56.292Z,48
2019-03-09T11:15:55.179Z,49
2019-03-09T11:16:55.181Z,49
2019-03-09T11:17:55.204Z,50
2019-03-09T11:18:55.192Z,50
2019-03-09T11:19:55.245Z,49
2019-03-09T11:20:55.211Z,49
2019-03-09T11:21:55.209Z,48
2019-03-09T11:22:55.265Z,49
2019-03-09T11:23:55.306Z,50
2019-03-09T11:25:03.027Z,49
2019-03-09T11:25:55.224Z,49
2019-03-09T11:26:55.230Z,49
2019-03-09T11:27:55.227Z,49
2019-03-09T11:28:55.229Z,49
2019-03-09T11:29:55.278Z,49
2019-03-09T11:30:55.222Z,49
2019-03-09T11:31:55.236Z,49
2019-03-09T11:32:55.276Z,50
2019-03-09T11:33:55.319Z,49
2019-03-09T11:34:55.223Z,51
2019-03-09T11:35:55.252Z,50
2019-03-09T11:36:55.264Z,50
2019-03-09T11:37:55.248Z,50
2019-03-09T11:38:55.278Z,52
2019-03-09T11:39:55.238Z,50
2019-03-09T11:40:57.733Z,51
2019-03-09T11:41:55.298Z,50
2019-03-09T11:42:55.281Z,50
2019-03-09T11:43:55.281Z,48
2019-03-09T11:44:55.312Z,49
2019-03-09T11:45:55.286Z,48
2019-03-09T11:46:55.304Z,48
2019-03-09T11:47:55.329Z,48
2019-03-09T11:48:55.374Z,49
2019-03-09T11:49:55.351Z,47
2019-03-09T11:50:55.334Z,47
2019-03-09T11:51:55.304Z,47
2019-03-09T11:52:55.314Z,48
2019-03-09T11:53:55.339Z,49
2019-03-09T11:54:55.358Z,49
2019-03-09T11:55:55.337Z,48
2019-03-09T11:56:55.340Z,48
2019-03-09T11:57:55.307Z,48
2019-03-09T11:58:55.328Z,48
2019-03-09T11:59:55.332Z,48
2019-03-09T12:00:55.329Z,48
2019-03-09T12:01:55.353Z,48
2019-03-09T12:02:55.383Z,48
2019-03-09T12:03:55.388Z,47
2019-03-09T12:04:55.370Z,47
2019-03-09T12:05:55.380Z,47
2019-03-09T12:06:55.384Z,47
2019-03-09T12:07:55.398Z,48
2019-03-09T12:08:55.393Z,47
2019-03-09T12:09:55.407Z,47
2019-03-09T12:10:55.383Z,47
2019-03-09T12:11:55.409Z,48
2019-03-09T12:12:55.396Z,48
2019-03-09T12:13:55.434Z,48
2019-03-09T12:14:55.373Z,48
2019-03-09T12:15:55.376Z,48
2019-03-09T12:16:55.423Z,48
2019-03-09T12:17:55.410Z,48
2019-03-09T12:18:55.406Z,47
2019-03-09T12:19:55.466Z,47
2019-03-09T12:20:55.444Z,48
2019-03-09T12:21:55.433Z,48
2019-03-09T12:23:00.818Z,49
2019-03-09T12:23:55.475Z,49
2019-03-09T12:24:55.420Z,49
2019-03-09T12:25:57.891Z,48
2019-03-09T12:26:55.443Z,48
2019-03-09T12:27:58.155Z,48
2019-03-09T12:28:55.417Z,51
2019-03-09T12:29:55.436Z,51
2019-03-09T12:30:55.422Z,51
2019-03-09T12:31:55.435Z,51
2019-03-09T12:32:55.510Z,52
2019-03-09T12:33:55.477Z,51
2019-03-09T12:34:55.532Z,50
2019-03-09T12:35:55.451Z,50
2019-03-09T12:36:55.538Z,51
2019-03-09T12:37:55.462Z,50
2019-03-09T12:39:11.409Z,51
2019-03-09T12:39:55.494Z,52
2019-03-09T12:40:55.479Z,50
2019-03-09T12:41:55.496Z,49
2019-03-09T12:42:55.498Z,50
2019-03-09T12:43:55.496Z,51
2019-03-09T12:44:55.486Z,50
2019-03-09T12:45:55.489Z,49
2019-03-09T12:46:55.509Z,50
2019-03-09T12:47:55.552Z,50
2019-03-09T12:48:55.480Z,50
2019-03-09T12:49:55.475Z,49
2019-03-09T12:50:55.527Z,50
2019-03-09T12:51:55.533Z,51
2019-03-09T12:52:55.549Z,50
2019-03-09T12:53:55.519Z,52
2019-03-09T12:54:55.524Z,52
2019-03-09T12:55:55.519Z,51
2019-03-09T12:56:55.550Z,52
2019-03-09T12:57:55.547Z,52
2019-03-09T12:58:55.527Z,52
2019-03-09T12:59:55.605Z,52
2019-03-09T13:00:55.554Z,53
2019-03-09T13:01:55.552Z,52
2019-03-09T13:03:55.532Z,53
2019-03-09T13:04:00.398Z,53
2019-03-09T13:04:55.542Z,52
2019-03-09T13:05:55.580Z,51
2019-03-09T13:06:55.557Z,52
2019-03-09T13:07:55.535Z,52
2019-03-09T13:08:55.551Z,53
2019-03-09T13:09:55.621Z,54
2019-03-09T13:10:56.090Z,54
2019-03-09T13:11:55.571Z,56
2019-03-09T13:12:55.589Z,57
2019-03-09T13:13:55.625Z,61
2019-03-09T13:14:55.647Z,59
2019-03-09T13:16:11.251Z,61
2019-03-09T13:16:55.676Z,61
2019-03-09T13:17:55.560Z,60
2019-03-09T13:18:55.567Z,61
2019-03-09T13:19:55.600Z,60
2019-03-09T13:20:55.593Z,60
2019-03-09T13:21:55.570Z,59
2019-03-09T13:22:55.585Z,59
2019-03-09T13:23:55.582Z,58
2019-03-09T13:24:55.587Z,59
2019-03-09T13:25:55.601Z,57
2019-03-09T13:26:55.603Z,56
2019-03-09T13:27:55.694Z,57
2019-03-09T13:28:55.644Z,56
2019-03-09T13:29:55.637Z,55
2019-03-09T13:30:55.663Z,54
2019-03-09T13:31:55.650Z,56
2019-03-09T13:32:55.622Z,54
2019-03-09T13:33:55.633Z,54
2019-03-09T13:34:55.693Z,55
2019-03-09T13:35:55.671Z,54
2019-03-09T13:36:55.711Z,54
2019-03-09T13:37:55.695Z,53
2019-03-09T13:38:55.649Z,52
2019-03-09T13:39:55.672Z,51
2019-03-09T13:40:55.672Z,52
2019-03-09T13:41:55.729Z,53
2019-03-09T13:42:55.685Z,51
2019-03-09T13:43:55.706Z,51
2019-03-09T13:44:55.740Z,51
2019-03-09T13:45:55.772Z,51
2019-03-09T13:46:55.712Z,51
2019-03-09T13:47:55.758Z,51
2019-03-09T13:48:55.739Z,51
2019-03-09T13:49:55.729Z,50
2019-03-09T13:50:55.816Z,52
2019-03-09T13:51:56.023Z,52
2019-03-09T13:52:55.747Z,52
2019-03-09T13:53:55.784Z,51
2019-03-09T13:54:55.779Z,52
2019-03-09T13:55:55.776Z,50
2019-03-09T13:56:55.766Z,51
2019-03-09T13:57:55.759Z,51
2019-03-09T13:58:55.756Z,51
2019-03-09T13:59:55.775Z,52
2019-03-09T14:00:55.795Z,52
2019-03-09T14:01:55.800Z,51
2019-03-09T14:02:55.791Z,52
2019-03-09T14:03:55.798Z,51
2019-03-09T14:04:55.896Z,53
2019-03-09T14:05:56.091Z,53
2019-03-09T14:06:55.832Z,51
2019-03-09T14:07:56.381Z,51
2019-03-09T14:08:55.898Z,52
2019-03-09T14:09:55.884Z,52
2019-03-09T14:10:55.941Z,52
2019-03-09T14:11:55.881Z,51
2019-03-09T14:12:55.913Z,51
2019-03-09T14:13:55.966Z,51
2019-03-09T14:14:55.915Z,50
2019-03-09T14:15:55.901Z,52